sensor_id;sensor_type;location;lat;lon;timestamp;pressure;altitude;pressure_sealevel;temperature;humidity
84673;BME280;74899;42.256;23.284;2024-03-08T00:00:29;88449.53;;;0.86;83.46
84673;BME280;74899;42.256;23.284;2024-03-08T00:02:57;88455.06;;;0.58;85.45
84673;BME280;74899;42.256;23.284;2024-03-08T00:05:24;88452.31;;;0.59;85.17
84673;BME280;74899;42.256;23.284;2024-03-08T00:07:49;88451.16;;;0.80;84.60
84673;BME280;74899;42.256;23.284;2024-03-08T00:10:15;88442.13;;;0.84;83.47
84673;BME280;74899;42.256;23.284;2024-03-08T00:12:44;88452.06;;;0.86;83.91
84673;BME280;74899;42.256;23.284;2024-03-08T00:15:11;88450.72;;;0.65;84.42
84673;BME280;74899;42.256;23.284;2024-03-08T00:17:42;88446.16;;;0.92;84.01
84673;BME280;74899;42.256;23.284;2024-03-08T00:20:09;88451.22;;;1.10;83.61
84673;BME280;74899;42.256;23.284;2024-03-08T00:22:36;88457.47;;;1.15;82.87
84673;BME280;74899;42.256;23.284;2024-03-08T00:25:05;88451.47;;;1.09;83.61
84673;BME280;74899;42.256;23.284;2024-03-08T00:27:34;88448.50;;;1.12;82.26
84673;BME280;74899;42.256;23.284;2024-03-08T00:30:00;88446.22;;;0.85;83.42
84673;BME280;74899;42.256;23.284;2024-03-08T00:32:26;88438.13;;;0.52;85.33
84673;BME280;74899;42.256;23.284;2024-03-08T00:34:54;88436.78;;;0.74;83.80
84673;BME280;74899;42.256;23.284;2024-03-08T00:37:20;88443.63;;;0.92;83.92
84673;BME280;74899;42.256;23.284;2024-03-08T00:39:50;88434.16;;;0.81;83.49
84673;BME280;74899;42.256;23.284;2024-03-08T00:42:16;88441.50;;;0.89;84.03
84673;BME280;74899;42.256;23.284;2024-03-08T00:44:42;88448.34;;;0.88;83.65
84673;BME280;74899;42.256;23.284;2024-03-08T00:47:08;88427.03;;;0.71;84.31
84673;BME280;74899;42.256;23.284;2024-03-08T00:49:33;88444.19;;;0.51;86.02
84673;BME280;74899;42.256;23.284;2024-03-08T00:51:59;88439.81;;;0.83;84.10
84673;BME280;74899;42.256;23.284;2024-03-08T00:54:25;88432.34;;;1.06;83.28
84673;BME280;74899;42.256;23.284;2024-03-08T00:56:51;88433.34;;;1.24;82.72
84673;BME280;74899;42.256;23.284;2024-03-08T00:59:17;88412.44;;;1.22;82.09
84673;BME280;74899;42.256;23.284;2024-03-08T01:01:42;88421.56;;;1.29;81.34
84673;BME280;74899;42.256;23.284;2024-03-08T01:04:09;88419.63;;;1.25;82.35
84673;BME280;74899;42.256;23.284;2024-03-08T01:06:35;88405.50;;;1.17;82.25
84673;BME280;74899;42.256;23.284;2024-03-08T01:09:01;88411.41;;;1.29;81.21
84673;BME280;74899;42.256;23.284;2024-03-08T01:11:27;88417.81;;;1.32;81.36
84673;BME280;74899;42.256;23.284;2024-03-08T01:13:56;88414.38;;;1.26;81.42
84673;BME280;74899;42.256;23.284;2024-03-08T01:16:22;88413.38;;;1.27;81.55
84673;BME280;74899;42.256;23.284;2024-03-08T01:18:48;88417.25;;;1.30;80.89
84673;BME280;74899;42.256;23.284;2024-03-08T01:21:13;88407.75;;;0.88;82.41
84673;BME280;74899;42.256;23.284;2024-03-08T01:23:39;88400.19;;;1.00;81.25
84673;BME280;74899;42.256;23.284;2024-03-08T01:26:04;88419.66;;;1.06;82.23
84673;BME280;74899;42.256;23.284;2024-03-08T01:28:30;88402.38;;;1.15;81.65
84673;BME280;74899;42.256;23.284;2024-03-08T01:30:56;88410.69;;;1.22;80.37
84673;BME280;74899;42.256;23.284;2024-03-08T01:33:25;88405.13;;;1.13;80.60
84673;BME280;74899;42.256;23.284;2024-03-08T01:35:52;88404.78;;;1.10;81.60
84673;BME280;74899;42.256;23.284;2024-03-08T01:38:19;88408.94;;;1.04;80.60
84673;BME280;74899;42.256;23.284;2024-03-08T01:40:44;88402.59;;;0.95;80.52
84673;BME280;74899;42.256;23.284;2024-03-08T01:43:26;88408.44;;;0.96;80.95
84673;BME280;74899;42.256;23.284;2024-03-08T01:45:54;88413.50;;;0.77;82.63
84673;BME280;74899;42.256;23.284;2024-03-08T01:48:21;88402.72;;;0.63;82.39
84673;BME280;74899;42.256;23.284;2024-03-08T01:50:50;88402.72;;;0.63;81.90
84673;BME280;74899;42.256;23.284;2024-03-08T01:53:17;88412.38;;;0.73;81.53
84673;BME280;74899;42.256;23.284;2024-03-08T01:55:46;88399.28;;;0.76;81.25
84673;BME280;74899;42.256;23.284;2024-03-08T01:58:13;88404.63;;;0.68;83.31
84673;BME280;74899;42.256;23.284;2024-03-08T02:00:43;88398.94;;;0.91;82.38
84673;BME280;74899;42.256;23.284;2024-03-08T02:03:10;88396.31;;;0.98;82.10
84673;BME280;74899;42.256;23.284;2024-03-08T02:05:37;88395.31;;;0.99;82.31
84673;BME280;74899;42.256;23.284;2024-03-08T02:08:06;88395.47;;;1.04;81.05
84673;BME280;74899;42.256;23.284;2024-03-08T02:10:33;88386.00;;;1.11;81.74
84673;BME280;74899;42.256;23.284;2024-03-08T02:13:01;88388.78;;;1.09;81.49
84673;BME280;74899;42.256;23.284;2024-03-08T02:15:56;88389.47;;;1.17;80.88
84673;BME280;74899;42.256;23.284;2024-03-08T02:18:25;88393.81;;;1.28;81.42
84673;BME280;74899;42.256;23.284;2024-03-08T02:20:59;88384.44;;;1.28;81.31
84673;BME280;74899;42.256;23.284;2024-03-08T02:23:26;88392.72;;;1.24;81.22
84673;BME280;74899;42.256;23.284;2024-03-08T02:25:53;88392.91;;;1.22;80.92
84673;BME280;74899;42.256;23.284;2024-03-08T02:28:20;88386.97;;;1.28;80.81
84673;BME280;74899;42.256;23.284;2024-03-08T02:30:46;88394.06;;;1.26;81.36
84673;BME280;74899;42.256;23.284;2024-03-08T02:33:16;88389.94;;;1.25;81.02
84673;BME280;74899;42.256;23.284;2024-03-08T02:35:47;88395.81;;;1.26;80.81
84673;BME280;74899;42.256;23.284;2024-03-08T02:38:13;88404.63;;;1.23;81.35
84673;BME280;74899;42.256;23.284;2024-03-08T02:40:47;88406.38;;;1.23;81.05
84673;BME280;74899;42.256;23.284;2024-03-08T02:43:14;88399.13;;;1.26;80.93
84673;BME280;74899;42.256;23.284;2024-03-08T02:45:41;88401.34;;;1.34;80.74
84673;BME280;74899;42.256;23.284;2024-03-08T02:48:11;88409.28;;;1.26;80.97
84673;BME280;74899;42.256;23.284;2024-03-08T02:50:37;88409.75;;;1.35;81.19
84673;BME280;74899;42.256;23.284;2024-03-08T02:53:06;88414.50;;;1.13;81.46
84673;BME280;74899;42.256;23.284;2024-03-08T02:55:33;88418.59;;;0.96;82.13
84673;BME280;74899;42.256;23.284;2024-03-08T02:58:02;88416.53;;;1.04;82.41
84673;BME280;74899;42.256;23.284;2024-03-08T03:00:29;88398.72;;;0.93;82.16
84673;BME280;74899;42.256;23.284;2024-03-08T03:02:57;88415.00;;;0.85;83.42
84673;BME280;74899;42.256;23.284;2024-03-08T03:05:23;88410.13;;;0.83;83.12
84673;BME280;74899;42.256;23.284;2024-03-08T03:07:50;88416.47;;;0.74;83.85
84673;BME280;74899;42.256;23.284;2024-03-08T03:10:19;88422.13;;;0.33;84.92
84673;BME280;74899;42.256;23.284;2024-03-08T03:12:48;88408.66;;;0.07;85.66
84673;BME280;74899;42.256;23.284;2024-03-08T03:15:18;88416.38;;;0.19;85.71
84673;BME280;74899;42.256;23.284;2024-03-08T03:17:47;88418.84;;;0.01;86.84
84673;BME280;74899;42.256;23.284;2024-03-08T03:20:14;88419.94;;;0.11;87.04
84673;BME280;74899;42.256;23.284;2024-03-08T03:22:41;88426.41;;;0.32;86.15
84673;BME280;74899;42.256;23.284;2024-03-08T03:25:09;88433.22;;;0.32;85.95
84673;BME280;74899;42.256;23.284;2024-03-08T03:27:35;88431.06;;;0.35;86.44
84673;BME280;74899;42.256;23.284;2024-03-08T03:30:02;88437.09;;;0.34;86.47
84673;BME280;74899;42.256;23.284;2024-03-08T03:32:46;88437.00;;;0.22;86.03
84673;BME280;74899;42.256;23.284;2024-03-08T03:35:15;88422.50;;;0.05;85.50
84673;BME280;74899;42.256;23.284;2024-03-08T03:37:41;88441.78;;;-0.19;88.36
84673;BME280;74899;42.256;23.284;2024-03-08T03:40:11;88441.56;;;-0.18;87.88
84673;BME280;74899;42.256;23.284;2024-03-08T03:42:36;88443.16;;;0.08;87.79
84673;BME280;74899;42.256;23.284;2024-03-08T03:45:05;88430.38;;;0.21;86.47
84673;BME280;74899;42.256;23.284;2024-03-08T03:47:31;88443.94;;;0.34;86.13
84673;BME280;74899;42.256;23.284;2024-03-08T03:49:56;88448.91;;;-0.10;86.84
84673;BME280;74899;42.256;23.284;2024-03-08T03:52:27;88439.00;;;0.14;86.97
84673;BME280;74899;42.256;23.284;2024-03-08T03:54:52;88446.00;;;0.43;85.62
84673;BME280;74899;42.256;23.284;2024-03-08T03:57:18;88444.19;;;0.51;85.00
84673;BME280;74899;42.256;23.284;2024-03-08T03:59:44;88440.16;;;0.68;85.09
84673;BME280;74899;42.256;23.284;2024-03-08T04:02:09;88422.84;;;0.58;84.95
84673;BME280;74899;42.256;23.284;2024-03-08T04:04:35;88447.13;;;0.73;84.26
84673;BME280;74899;42.256;23.284;2024-03-08T04:07:00;88442.84;;;0.92;85.03
84673;BME280;74899;42.256;23.284;2024-03-08T04:09:27;88451.44;;;0.90;84.18
84673;BME280;74899;42.256;23.284;2024-03-08T04:11:53;88431.28;;;0.77;85.25
84673;BME280;74899;42.256;23.284;2024-03-08T04:14:20;88450.47;;;0.92;85.21
84673;BME280;74899;42.256;23.284;2024-03-08T04:16:46;88454.13;;;0.96;85.56
84673;BME280;74899;42.256;23.284;2024-03-08T04:19:13;88449.53;;;1.04;84.60
84673;BME280;74899;42.256;23.284;2024-03-08T04:21:39;88453.50;;;1.00;85.08
84673;BME280;74899;42.256;23.284;2024-03-08T04:24:05;88459.44;;;1.12;84.94
84673;BME280;74899;42.256;23.284;2024-03-08T04:26:31;88455.69;;;1.15;83.52
84673;BME280;74899;42.256;23.284;2024-03-08T04:28:56;88466.75;;;1.21;83.54
84673;BME280;74899;42.256;23.284;2024-03-08T04:31:22;88469.44;;;1.07;83.74
84673;BME280;74899;42.256;23.284;2024-03-08T04:33:47;88451.81;;;1.12;83.68
84673;BME280;74899;42.256;23.284;2024-03-08T04:36:13;88431.28;;;0.96;83.83
84673;BME280;74899;42.256;23.284;2024-03-08T04:38:40;88481.34;;;1.25;83.82
84673;BME280;74899;42.256;23.284;2024-03-08T04:41:06;88478.34;;;1.35;82.92
84673;BME280;74899;42.256;23.284;2024-03-08T04:43:33;88477.00;;;1.32;82.84
84673;BME280;74899;42.256;23.284;2024-03-08T04:45:59;88469.91;;;1.34;83.15
84673;BME280;74899;42.256;23.284;2024-03-08T04:48:24;88474.94;;;1.23;83.92
84673;BME280;74899;42.256;23.284;2024-03-08T04:50:52;88475.22;;;1.33;82.97
84673;BME280;74899;42.256;23.284;2024-03-08T04:53:18;88463.88;;;1.35;83.71
84673;BME280;74899;42.256;23.284;2024-03-08T04:55:43;88480.94;;;1.47;83.67
84673;BME280;74899;42.256;23.284;2024-03-08T04:58:09;88448.56;;;1.24;83.36
84673;BME280;74899;42.256;23.284;2024-03-08T05:00:35;88480.84;;;1.53;82.81
84673;BME280;74899;42.256;23.284;2024-03-08T05:03:00;88489.41;;;1.41;82.44
84673;BME280;74899;42.256;23.284;2024-03-08T05:05:26;88441.38;;;1.21;81.58
84673;BME280;74899;42.256;23.284;2024-03-08T05:07:53;88485.38;;;1.51;81.60
84673;BME280;74899;42.256;23.284;2024-03-08T05:10:19;88484.94;;;1.54;81.21
84673;BME280;74899;42.256;23.284;2024-03-08T05:12:44;88494.31;;;1.54;81.18
84673;BME280;74899;42.256;23.284;2024-03-08T05:15:10;88489.91;;;1.49;81.60
84673;BME280;74899;42.256;23.284;2024-03-08T05:17:36;88493.13;;;1.20;82.32
84673;BME280;74899;42.256;23.284;2024-03-08T05:20:02;88495.31;;;1.34;83.07
84673;BME280;74899;42.256;23.284;2024-03-08T05:22:29;88487.13;;;1.14;82.55
84673;BME280;74899;42.256;23.284;2024-03-08T05:24:54;88494.03;;;1.25;82.44
84673;BME280;74899;42.256;23.284;2024-03-08T05:27:20;88478.97;;;1.12;82.81
84673;BME280;74899;42.256;23.284;2024-03-08T05:29:46;88506.03;;;1.36;82.45
84673;BME280;74899;42.256;23.284;2024-03-08T05:32:12;88511.09;;;1.55;82.16
84673;BME280;74899;42.256;23.284;2024-03-08T05:34:37;88484.81;;;1.49;80.44
84673;BME280;74899;42.256;23.284;2024-03-08T05:37:03;88515.91;;;1.63;80.50
84673;BME280;74899;42.256;23.284;2024-03-08T05:39:29;88505.13;;;1.68;80.16
84673;BME280;74899;42.256;23.284;2024-03-08T05:41:55;88518.03;;;1.85;80.37
84673;BME280;74899;42.256;23.284;2024-03-08T05:44:21;88525.09;;;1.83;80.55
84673;BME280;74899;42.256;23.284;2024-03-08T05:46:47;88518.03;;;1.85;80.33
84673;BME280;74899;42.256;23.284;2024-03-08T05:49:12;88525.75;;;1.90;79.35
84673;BME280;74899;42.256;23.284;2024-03-08T05:51:39;88516.75;;;1.94;79.70
84673;BME280;74899;42.256;23.284;2024-03-08T05:54:10;88517.56;;;2.06;79.81
84673;BME280;74899;42.256;23.284;2024-03-08T05:56:36;88519.38;;;2.17;78.85
84673;BME280;74899;42.256;23.284;2024-03-08T05:59:02;88525.94;;;2.37;78.51
84673;BME280;74899;42.256;23.284;2024-03-08T06:01:28;88510.03;;;2.41;77.82
84673;BME280;74899;42.256;23.284;2024-03-08T06:03:55;88528.66;;;2.65;76.91
84673;BME280;74899;42.256;23.284;2024-03-08T06:06:25;88531.91;;;2.72;76.58
84673;BME280;74899;42.256;23.284;2024-03-08T06:08:52;88536.25;;;2.84;76.73
84673;BME280;74899;42.256;23.284;2024-03-08T06:11:19;88537.25;;;2.94;76.41
84673;BME280;74899;42.256;23.284;2024-03-08T06:13:45;88530.94;;;2.97;76.03
84673;BME280;74899;42.256;23.284;2024-03-08T06:16:11;88523.28;;;2.97;75.73
84673;BME280;74899;42.256;23.284;2024-03-08T06:18:37;88541.47;;;3.12;75.51
84673;BME280;74899;42.256;23.284;2024-03-08T06:21:05;88549.00;;;2.95;75.99
84673;BME280;74899;42.256;23.284;2024-03-08T06:23:34;88545.44;;;2.97;75.34
84673;BME280;74899;42.256;23.284;2024-03-08T06:26:07;88544.34;;;3.04;75.34
84673;BME280;74899;42.256;23.284;2024-03-08T06:28:33;88548.13;;;3.02;75.11
84673;BME280;74899;42.256;23.284;2024-03-08T06:31:00;88554.31;;;3.17;75.59
84673;BME280;74899;42.256;23.284;2024-03-08T06:33:26;88541.47;;;3.12;75.02
84673;BME280;74899;42.256;23.284;2024-03-08T06:35:52;88550.22;;;3.16;75.19
84673;BME280;74899;42.256;23.284;2024-03-08T06:38:18;88551.59;;;2.35;76.79
84673;BME280;74899;42.256;23.284;2024-03-08T06:40:44;88533.50;;;1.65;78.83
84673;BME280;74899;42.256;23.284;2024-03-08T06:43:13;88555.84;;;2.11;79.21
84673;BME280;74899;42.256;23.284;2024-03-08T06:45:44;88550.28;;;2.33;77.70
84673;BME280;74899;42.256;23.284;2024-03-08T06:48:19;88551.44;;;2.18;78.30
84673;BME280;74899;42.256;23.284;2024-03-08T06:50:45;88561.16;;;1.91;79.32
84673;BME280;74899;42.256;23.284;2024-03-08T06:53:12;88558.81;;;2.38;78.73
84673;BME280;74899;42.256;23.284;2024-03-08T06:55:37;88556.84;;;2.22;77.66
84673;BME280;74899;42.256;23.284;2024-03-08T06:58:03;88572.88;;;1.74;79.47
84673;BME280;74899;42.256;23.284;2024-03-08T07:00:29;88576.63;;;1.71;79.95
84673;BME280;74899;42.256;23.284;2024-03-08T07:02:56;88558.41;;;1.74;79.29
84673;BME280;74899;42.256;23.284;2024-03-08T07:05:26;88554.38;;;1.48;80.45
84673;BME280;74899;42.256;23.284;2024-03-08T07:07:52;88578.47;;;1.21;81.39
84673;BME280;74899;42.256;23.284;2024-03-08T07:10:18;88579.13;;;1.34;80.87
84673;BME280;74899;42.256;23.284;2024-03-08T07:12:44;88567.44;;;0.83;82.19
84673;BME280;74899;42.256;23.284;2024-03-08T07:15:12;88568.06;;;1.04;83.38
84673;BME280;74899;42.256;23.284;2024-03-08T07:17:41;88583.31;;;1.47;81.72
84673;BME280;74899;42.256;23.284;2024-03-08T07:20:10;88582.47;;;1.90;80.88
84673;BME280;74899;42.256;23.284;2024-03-08T07:22:38;88566.16;;;2.28;78.57
84673;BME280;74899;42.256;23.284;2024-03-08T07:25:06;88580.97;;;3.03;75.93
84673;BME280;74899;42.256;23.284;2024-03-08T07:27:51;88582.66;;;3.56;74.29
84673;BME280;74899;42.256;23.284;2024-03-08T07:30:22;88582.19;;;3.95;72.47
84673;BME280;74899;42.256;23.284;2024-03-08T07:33:06;88590.69;;;4.12;71.83
84673;BME280;74899;42.256;23.284;2024-03-08T07:35:35;88568.03;;;4.27;70.42
84673;BME280;74899;42.256;23.284;2024-03-08T07:38:09;88567.41;;;4.49;70.12
84673;BME280;74899;42.256;23.284;2024-03-08T07:40:39;88575.53;;;4.74;69.11
84673;BME280;74899;42.256;23.284;2024-03-08T07:43:09;88581.50;;;4.80;68.53
84673;BME280;74899;42.256;23.284;2024-03-08T07:45:36;88581.09;;;4.71;68.34
84673;BME280;74899;42.256;23.284;2024-03-08T07:48:01;88568.47;;;4.82;67.68
84673;BME280;74899;42.256;23.284;2024-03-08T07:50:28;88546.97;;;4.77;67.42
84673;BME280;74899;42.256;23.284;2024-03-08T07:52:54;88587.00;;;5.06;66.99
84673;BME280;74899;42.256;23.284;2024-03-08T07:55:20;88585.31;;;5.28;65.99
84673;BME280;74899;42.256;23.284;2024-03-08T07:57:45;88589.88;;;5.26;65.73
84673;BME280;74899;42.256;23.284;2024-03-08T08:00:13;88580.97;;;5.29;66.10
84673;BME280;74899;42.256;23.284;2024-03-08T08:02:44;88596.25;;;5.23;65.99
84673;BME280;74899;42.256;23.284;2024-03-08T08:05:11;88582.47;;;5.41;65.88
84673;BME280;74899;42.256;23.284;2024-03-08T08:07:36;88585.78;;;5.59;64.34
84673;BME280;74899;42.256;23.284;2024-03-08T08:10:02;88589.44;;;5.46;65.99
84673;BME280;74899;42.256;23.284;2024-03-08T08:12:27;88585.47;;;5.55;64.62
84673;BME280;74899;42.256;23.284;2024-03-08T08:14:54;88583.84;;;5.49;64.97
84673;BME280;74899;42.256;23.284;2024-03-08T08:17:20;88598.78;;;5.74;64.32
84673;BME280;74899;42.256;23.284;2024-03-08T08:19:45;88555.59;;;5.56;64.38
84673;BME280;74899;42.256;23.284;2024-03-08T08:22:11;88596.44;;;5.73;63.08
84673;BME280;74899;42.256;23.284;2024-03-08T08:24:36;88598.69;;;5.86;62.79
84673;BME280;74899;42.256;23.284;2024-03-08T08:27:03;88600.78;;;5.89;63.39
84673;BME280;74899;42.256;23.284;2024-03-08T08:29:28;88571.81;;;6.00;62.44
84673;BME280;74899;42.256;23.284;2024-03-08T08:31:57;88587.59;;;6.36;61.45
84673;BME280;74899;42.256;23.284;2024-03-08T08:34:24;88590.44;;;6.18;62.48
84673;BME280;74899;42.256;23.284;2024-03-08T08:36:51;88594.13;;;6.49;61.51
84673;BME280;74899;42.256;23.284;2024-03-08T08:39:18;88588.72;;;6.67;60.31
84673;BME280;74899;42.256;23.284;2024-03-08T08:41:44;88598.75;;;6.74;60.41
84673;BME280;74899;42.256;23.284;2024-03-08T08:44:09;88598.06;;;6.56;60.20
84673;BME280;74899;42.256;23.284;2024-03-08T08:46:37;88588.97;;;6.44;61.40
84673;BME280;74899;42.256;23.284;2024-03-08T08:49:04;88583.38;;;6.47;60.30
84673;BME280;74899;42.256;23.284;2024-03-08T08:51:30;88589.34;;;6.79;61.09
84673;BME280;74899;42.256;23.284;2024-03-08T08:53:58;88589.41;;;6.85;59.73
84673;BME280;74899;42.256;23.284;2024-03-08T08:56:24;88588.88;;;6.82;58.90
84673;BME280;74899;42.256;23.284;2024-03-08T08:58:50;88584.00;;;7.08;60.25
84673;BME280;74899;42.256;23.284;2024-03-08T09:01:16;88593.41;;;7.30;58.77
84673;BME280;74899;42.256;23.284;2024-03-08T09:03:43;88596.16;;;7.23;59.33
84673;BME280;74899;42.256;23.284;2024-03-08T09:06:12;88594.38;;;7.23;58.87
84673;BME280;74899;42.256;23.284;2024-03-08T09:08:39;88584.00;;;7.13;59.27
84673;BME280;74899;42.256;23.284;2024-03-08T09:11:04;88590.91;;;7.40;59.52
84673;BME280;74899;42.256;23.284;2024-03-08T09:13:30;88593.44;;;7.67;58.82
84673;BME280;74899;42.256;23.284;2024-03-08T09:15:56;88573.41;;;7.69;57.69
84673;BME280;74899;42.256;23.284;2024-03-08T09:18:21;88585.25;;;7.70;56.98
84673;BME280;74899;42.256;23.284;2024-03-08T09:20:47;88593.09;;;7.90;57.72
84673;BME280;74899;42.256;23.284;2024-03-08T09:23:12;88565.72;;;7.69;56.85
84673;BME280;74899;42.256;23.284;2024-03-08T09:25:38;88589.72;;;7.85;56.54
84673;BME280;74899;42.256;23.284;2024-03-08T09:28:04;88573.31;;;7.91;57.11
84673;BME280;74899;42.256;23.284;2024-03-08T09:30:31;88592.34;;;8.00;56.95
84673;BME280;74899;42.256;23.284;2024-03-08T09:32:56;88578.59;;;8.16;55.48
84673;BME280;74899;42.256;23.284;2024-03-08T09:35:22;88593.22;;;8.16;55.24
84673;BME280;74899;42.256;23.284;2024-03-08T09:37:47;88591.09;;;8.03;55.11
84673;BME280;74899;42.256;23.284;2024-03-08T09:40:16;88596.09;;;8.25;56.14
84673;BME280;74899;42.256;23.284;2024-03-08T09:42:46;88589.59;;;8.12;55.68
84673;BME280;74899;42.256;23.284;2024-03-08T09:45:13;88588.75;;;8.01;56.22
84673;BME280;74899;42.256;23.284;2024-03-08T09:47:44;88590.38;;;8.07;55.90
84673;BME280;74899;42.256;23.284;2024-03-08T09:50:11;88589.38;;;8.18;54.71
84673;BME280;74899;42.256;23.284;2024-03-08T09:52:41;88599.41;;;8.20;55.52
84673;BME280;74899;42.256;23.284;2024-03-08T09:55:10;88592.00;;;7.81;56.56
84673;BME280;74899;42.256;23.284;2024-03-08T09:57:37;88589.88;;;8.15;55.92
84673;BME280;74899;42.256;23.284;2024-03-08T10:00:04;88592.09;;;8.44;54.75
84673;BME280;74899;42.256;23.284;2024-03-08T10:02:45;88600.94;;;8.63;55.47
84673;BME280;74899;42.256;23.284;2024-03-08T10:05:12;88592.06;;;9.02;54.59
84673;BME280;74899;42.256;23.284;2024-03-08T10:07:38;88603.84;;;8.93;53.62
84673;BME280;74899;42.256;23.284;2024-03-08T10:10:04;88595.34;;;8.87;53.78
84673;BME280;74899;42.256;23.284;2024-03-08T10:12:30;88595.31;;;8.72;53.82
84673;BME280;74899;42.256;23.284;2024-03-08T10:14:58;88592.00;;;8.81;54.38
84673;BME280;74899;42.256;23.284;2024-03-08T10:17:24;88591.47;;;8.79;54.51
84673;BME280;74899;42.256;23.284;2024-03-08T10:19:50;88610.94;;;8.65;54.99
84673;BME280;74899;42.256;23.284;2024-03-08T10:22:17;88595.66;;;8.38;54.25
84673;BME280;74899;42.256;23.284;2024-03-08T10:24:46;88608.00;;;8.41;53.74
84673;BME280;74899;42.256;23.284;2024-03-08T10:27:11;88597.69;;;8.36;55.66
84673;BME280;74899;42.256;23.284;2024-03-08T10:29:37;88613.06;;;8.26;54.82
84673;BME280;74899;42.256;23.284;2024-03-08T10:32:04;88601.94;;;8.57;55.19
84673;BME280;74899;42.256;23.284;2024-03-08T10:34:32;88601.44;;;8.60;56.38
84673;BME280;74899;42.256;23.284;2024-03-08T10:37:03;88595.84;;;8.79;54.80
84673;BME280;74899;42.256;23.284;2024-03-08T10:39:35;88584.59;;;8.95;52.86
84673;BME280;74899;42.256;23.284;2024-03-08T10:42:03;88588.19;;;8.99;51.99
84673;BME280;74899;42.256;23.284;2024-03-08T10:49:38;88576.59;;;8.92;52.50
84673;BME280;74899;42.256;23.284;2024-03-08T10:52:05;88587.16;;;9.00;52.95
84673;BME280;74899;42.256;23.284;2024-03-08T10:54:34;88588.91;;;8.79;54.07
84673;BME280;74899;42.256;23.284;2024-03-08T10:57:05;88581.78;;;9.02;52.35
84673;BME280;74899;42.256;23.284;2024-03-08T10:59:31;88586.97;;;9.38;52.98
84673;BME280;74899;42.256;23.284;2024-03-08T11:01:59;88591.84;;;9.49;50.39
84673;BME280;74899;42.256;23.284;2024-03-08T11:04:25;88583.88;;;9.46;51.22
84673;BME280;74899;42.256;23.284;2024-03-08T11:06:51;88581.31;;;9.76;51.25
84673;BME280;74899;42.256;23.284;2024-03-08T11:12:25;88582.34;;;9.55;49.85
84673;BME280;74899;42.256;23.284;2024-03-08T11:14:53;88578.47;;;9.52;50.59
84673;BME280;74899;42.256;23.284;2024-03-08T11:19:55;88582.09;;;9.97;49.80
84673;BME280;74899;42.256;23.284;2024-03-08T11:22:28;88556.34;;;9.87;48.76
84673;BME280;74899;42.256;23.284;2024-03-08T11:25:04;88569.41;;;8.94;51.19
84673;BME280;74899;42.256;23.284;2024-03-08T11:27:35;88558.03;;;6.99;56.09
84673;BME280;74899;42.256;23.284;2024-03-08T11:30:06;88573.31;;;7.91;55.21
84673;BME280;74899;42.256;23.284;2024-03-08T11:32:46;88553.47;;;8.24;52.95
84673;BME280;74899;42.256;23.284;2024-03-08T11:35:21;88567.44;;;8.43;54.01
84673;BME280;74899;42.256;23.284;2024-03-08T11:37:50;88565.75;;;7.74;54.46
84673;BME280;74899;42.256;23.284;2024-03-08T11:40:16;88563.47;;;7.78;52.88
84673;BME280;74899;42.256;23.284;2024-03-08T11:42:45;88554.69;;;8.11;55.24
84673;BME280;74899;42.256;23.284;2024-03-08T11:45:17;88557.84;;;8.28;53.68
84673;BME280;74899;42.256;23.284;2024-03-08T11:47:43;88565.44;;;8.55;51.99
84673;BME280;74899;42.256;23.284;2024-03-08T11:50:12;88545.00;;;7.76;54.25
84673;BME280;74899;42.256;23.284;2024-03-08T11:52:37;88570.03;;;8.53;54.87
84673;BME280;74899;42.256;23.284;2024-03-08T11:55:03;88560.19;;;9.18;51.47
84673;BME280;74899;42.256;23.284;2024-03-08T11:57:30;88543.47;;;9.21;49.69
84673;BME280;74899;42.256;23.284;2024-03-08T11:59:58;88550.19;;;9.37;48.62
84673;BME280;74899;42.256;23.284;2024-03-08T12:02:30;88543.31;;;8.44;48.22
84673;BME280;74899;42.256;23.284;2024-03-08T12:05:00;88556.25;;;8.17;51.31
84673;BME280;74899;42.256;23.284;2024-03-08T12:07:29;88554.69;;;7.68;52.25
84673;BME280;74899;42.256;23.284;2024-03-08T12:10:22;88562.00;;;8.34;51.06
84673;BME280;74899;42.256;23.284;2024-03-08T12:12:49;88554.81;;;6.87;55.69
84673;BME280;74899;42.256;23.284;2024-03-08T12:15:17;88547.91;;;7.15;54.99
84673;BME280;74899;42.256;23.284;2024-03-08T12:17:44;88546.19;;;8.68;52.18
84673;BME280;74899;42.256;23.284;2024-03-08T12:20:25;88551.09;;;8.70;48.83
84673;BME280;74899;42.256;23.284;2024-03-08T12:22:52;88545.78;;;9.12;48.76
84673;BME280;74899;42.256;23.284;2024-03-08T12:25:18;88542.72;;;9.46;50.55
84673;BME280;74899;42.256;23.284;2024-03-08T12:27:45;88531.84;;;10.10;47.17
84673;BME280;74899;42.256;23.284;2024-03-08T12:33:04;88521.25;;;10.17;46.81
84673;BME280;74899;42.256;23.284;2024-03-08T12:35:30;88522.16;;;10.62;46.52
84673;BME280;74899;42.256;23.284;2024-03-08T12:37:58;88525.66;;;10.86;43.30
84673;BME280;74899;42.256;23.284;2024-03-08T12:40:29;88526.00;;;9.59;44.86
84673;BME280;74899;42.256;23.284;2024-03-08T12:42:55;88515.38;;;10.01;46.84
84673;BME280;74899;42.256;23.284;2024-03-08T12:45:22;88528.81;;;9.62;47.42
84673;BME280;74899;42.256;23.284;2024-03-08T12:47:52;88515.72;;;9.28;47.89
84673;BME280;74899;42.256;23.284;2024-03-08T12:50:22;88529.25;;;10.10;46.74
84673;BME280;74899;42.256;23.284;2024-03-08T12:52:48;88509.75;;;8.76;48.89
84673;BME280;74899;42.256;23.284;2024-03-08T12:55:15;88528.06;;;7.75;53.87
84673;BME280;74899;42.256;23.284;2024-03-08T12:57:43;88510.88;;;7.00;56.14
84673;BME280;74899;42.256;23.284;2024-03-08T13:00:09;88531.25;;;6.14;57.72
84673;BME280;74899;42.256;23.284;2024-03-08T13:02:40;88532.00;;;6.09;59.93
84673;BME280;74899;42.256;23.284;2024-03-08T13:05:07;88532.47;;;6.06;61.40
84673;BME280;74899;42.256;23.284;2024-03-08T13:07:35;88532.81;;;6.15;62.69
84673;BME280;74899;42.256;23.284;2024-03-08T13:10:03;88528.34;;;5.66;60.79
84673;BME280;74899;42.256;23.284;2024-03-08T13:12:30;88525.09;;;5.71;62.97
84673;BME280;74899;42.256;23.284;2024-03-08T13:14:55;88540.31;;;6.00;60.94